createdAt,value
2019-03-16T00:01:33.115Z,0.40
2019-03-16T00:04:01.645Z,0.50
2019-03-16T00:06:30.179Z,0.40
2019-03-16T00:08:58.611Z,0.40
2019-03-16T00:11:27.050Z,0.53
2019-03-16T00:13:55.519Z,0.57
2019-03-16T00:16:23.958Z,0.50
2019-03-16T00:18:52.423Z,0.40
2019-03-16T00:21:20.886Z,0.43
2019-03-16T00:23:49.391Z,0.40
2019-03-16T00:26:17.998Z,0.50
2019-03-16T00:28:46.443Z,0.40
2019-03-16T00:31:14.902Z,0.40
2019-03-16T00:33:43.514Z,0.47
2019-03-16T00:36:11.979Z,0.50
2019-03-16T00:38:40.486Z,0.40
2019-03-16T00:41:28.295Z,0.40
2019-03-16T00:43:56.803Z,0.50
2019-03-16T00:46:25.246Z,0.50
2019-03-16T00:48:53.707Z,0.50
2019-03-16T00:51:22.214Z,0.50
2019-03-16T00:53:50.687Z,0.40
2019-03-16T00:56:19.859Z,0.40
2019-03-16T00:58:48.386Z,0.50
2019-03-16T01:01:16.850Z,0.50
2019-03-16T01:03:46.034Z,0.40
2019-03-16T01:06:14.681Z,0.40
2019-03-16T01:08:43.243Z,0.50
2019-03-16T01:11:11.704Z,0.50
2019-03-16T01:13:40.142Z,0.50
2019-03-16T01:16:08.579Z,0.50
2019-03-16T01:18:37.043Z,0.50
2019-03-16T01:21:05.480Z,0.40
2019-03-16T01:23:33.941Z,0.50
2019-03-16T01:26:21.644Z,0.50
2019-03-16T01:29:09.515Z,0.40
2019-03-16T01:31:57.216Z,0.40
2019-03-16T01:34:25.755Z,0.60
2019-03-16T01:36:54.262Z,0.60
2019-03-16T01:39:22.770Z,0.50
2019-03-16T01:41:51.232Z,0.40
2019-03-16T01:44:19.677Z,0.50
2019-03-16T01:46:48.143Z,0.40
2019-03-16T01:49:16.586Z,0.40
2019-03-16T01:51:45.219Z,0.40
2019-03-16T01:54:13.666Z,0.50
2019-03-16T01:56:42.138Z,0.40
2019-03-16T01:59:10.667Z,0.40
2019-03-16T02:01:58.500Z,0.40
2019-03-16T02:04:46.374Z,0.40
2019-03-16T02:07:14.883Z,0.50
2019-03-16T02:09:43.345Z,0.53
2019-03-16T02:12:11.858Z,0.40
2019-03-16T02:14:59.670Z,0.50
2019-03-16T02:17:28.969Z,0.50
2019-03-16T02:19:58.111Z,0.53
2019-03-16T02:22:27.108Z,0.50
2019-03-16T02:24:55.602Z,0.50
2019-03-16T02:27:24.066Z,0.60
2019-03-16T02:29:52.578Z,0.70
2019-03-16T02:32:21.018Z,0.50
2019-03-16T02:34:49.552Z,0.50
2019-03-16T02:37:18.066Z,0.50
2019-03-16T02:39:46.600Z,0.50
2019-03-16T02:42:15.223Z,0.50
2019-03-16T02:44:43.844Z,0.50
2019-03-16T02:47:12.309Z,0.50
2019-03-16T02:49:40.809Z,0.47
2019-03-16T02:52:09.262Z,0.57
2019-03-16T02:54:37.706Z,0.60
2019-03-16T02:57:06.177Z,0.50
2019-03-16T02:59:34.619Z,0.50
2019-03-16T03:02:03.060Z,0.40
2019-03-16T03:04:31.674Z,0.50
2019-03-16T03:07:00.217Z,0.70
2019-03-16T03:09:48.168Z,0.50
2019-03-16T03:12:35.951Z,0.40
2019-03-16T03:15:25.352Z,0.60
2019-03-16T03:17:53.802Z,0.40
2019-03-16T03:20:22.235Z,0.50
2019-03-16T03:22:50.880Z,0.40
2019-03-16T03:25:19.315Z,0.40
2019-03-16T03:27:47.764Z,0.50
2019-03-16T03:30:16.308Z,0.40
2019-03-16T03:33:04.252Z,0.50
2019-03-16T03:35:52.110Z,0.53
2019-03-16T03:38:20.562Z,0.50
2019-03-16T03:40:49.167Z,0.70
2019-03-16T03:43:17.706Z,0.57
2019-03-16T03:45:46.165Z,0.60
2019-03-16T03:48:14.660Z,0.40
2019-03-16T03:50:43.208Z,0.50
2019-03-16T03:53:11.795Z,0.60
2019-03-16T03:55:40.326Z,0.50
2019-03-16T03:58:09.203Z,0.60
2019-03-16T04:00:39.151Z,0.47
2019-03-16T04:03:07.699Z,0.60
2019-03-16T04:05:36.162Z,0.50
2019-03-16T04:08:04.830Z,0.50
2019-03-16T04:10:52.761Z,0.60
2019-03-16T04:13:40.615Z,0.53
2019-03-16T04:16:09.201Z,0.60
2019-03-16T04:18:37.871Z,0.50
2019-03-16T04:21:25.746Z,0.67
2019-03-16T04:23:54.254Z,0.60
2019-03-16T04:26:22.772Z,0.70
2019-03-16T04:28:51.305Z,0.60
2019-03-16T04:31:19.759Z,0.53
2019-03-16T04:34:07.645Z,0.80
2019-03-16T04:36:36.150Z,0.50
2019-03-16T04:39:06.307Z,0.50
2019-03-16T04:41:34.842Z,0.80
2019-03-16T04:44:03.604Z,0.70
2019-03-16T04:46:51.479Z,0.53
2019-03-16T04:49:19.920Z,1.30
2019-03-16T04:51:48.363Z,0.50
2019-03-16T04:54:16.837Z,0.70
2019-03-16T04:56:45.274Z,0.60
2019-03-16T04:59:33.146Z,1.00
2019-03-16T05:02:20.926Z,0.70
2019-03-16T05:04:49.455Z,0.50
2019-03-16T05:07:17.978Z,0.90
2019-03-16T05:09:46.419Z,1.13
2019-03-16T05:12:14.881Z,0.80
2019-03-16T05:14:43.470Z,0.60
2019-03-16T05:17:11.907Z,0.80
2019-03-16T05:19:40.378Z,1.23
2019-03-16T05:22:08.884Z,0.60
2019-03-16T05:24:37.327Z,0.60
2019-03-16T05:27:05.779Z,0.50
2019-03-16T05:29:34.225Z,0.70
2019-03-16T05:32:02.663Z,0.67
2019-03-16T05:34:31.374Z,0.60
2019-03-16T05:37:00.342Z,0.50
2019-03-16T05:39:28.849Z,0.50
2019-03-16T05:41:57.314Z,0.40
2019-03-16T05:44:25.819Z,0.50
2019-03-16T05:46:54.576Z,0.60
2019-03-16T05:49:23.034Z,0.50
2019-03-16T05:52:10.896Z,0.57
2019-03-16T05:54:39.363Z,0.50
2019-03-16T05:57:07.801Z,0.50
2019-03-16T05:59:55.676Z,0.40
2019-03-16T06:02:24.115Z,0.40
2019-03-16T06:04:52.630Z,0.80
2019-03-16T06:07:21.094Z,0.50
2019-03-16T06:09:49.544Z,0.50
2019-03-16T06:12:18.006Z,0.60
2019-03-16T06:14:46.572Z,0.50
2019-03-16T06:17:15.062Z,0.57
2019-03-16T06:19:43.500Z,0.87
2019-03-16T06:22:12.032Z,0.60
2019-03-16T06:24:59.877Z,0.80
2019-03-16T06:27:28.350Z,0.73
2019-03-16T06:29:56.938Z,0.90
2019-03-16T06:32:25.517Z,0.50
2019-03-16T06:34:53.983Z,0.57
2019-03-16T06:37:22.418Z,0.60
2019-03-16T06:39:50.862Z,0.77
2019-03-16T06:42:19.336Z,0.60
2019-03-16T06:44:47.778Z,0.53
2019-03-16T06:47:16.602Z,0.40
2019-03-16T06:49:45.058Z,0.50
2019-03-16T06:52:32.914Z,0.50
2019-03-16T06:55:01.395Z,0.60
2019-03-16T06:57:29.993Z,0.40
2019-03-16T06:59:58.573Z,0.47
2019-03-16T07:02:27.035Z,0.70
2019-03-16T07:04:57.018Z,0.63
2019-03-16T07:07:44.819Z,0.50
2019-03-16T07:10:14.099Z,0.50
2019-03-16T07:12:42.616Z,0.50
2019-03-16T07:15:12.595Z,0.50
2019-03-16T07:17:41.110Z,0.40
2019-03-16T07:20:13.774Z,0.50
2019-03-16T07:22:43.124Z,0.60
2019-03-16T07:25:11.797Z,0.50
2019-03-16T07:27:40.315Z,0.50
2019-03-16T07:30:18.166Z,0.70
2019-03-16T07:32:46.680Z,0.80
2019-03-16T07:35:15.120Z,0.50
2019-03-16T07:37:43.586Z,0.53
2019-03-16T07:40:33.607Z,0.50
2019-03-16T07:43:02.108Z,0.50
2019-03-16T07:45:30.553Z,0.60
2019-03-16T07:48:18.351Z,0.85
2019-03-16T07:50:46.790Z,0.90
2019-03-16T07:53:15.323Z,1.00
2019-03-16T07:55:43.842Z,0.50
2019-03-16T07:58:12.383Z,1.00
2019-03-16T08:00:40.823Z,0.67
2019-03-16T08:03:09.284Z,1.33
2019-03-16T08:05:37.798Z,1.23
2019-03-16T08:08:06.301Z,0.60
2019-03-16T08:10:34.760Z,0.77
2019-03-16T08:13:03.198Z,0.90
2019-03-16T08:15:31.661Z,0.50
2019-03-16T08:18:00.175Z,1.00
2019-03-16T08:20:31.263Z,0.80
2019-03-16T08:22:58.787Z,0.90
2019-03-16T08:25:27.247Z,0.77
2019-03-16T08:27:55.692Z,0.60
2019-03-16T08:30:24.192Z,0.60
2019-03-16T08:32:52.751Z,0.70
2019-03-16T08:35:21.251Z,0.80
2019-03-16T08:37:49.778Z,0.50
2019-03-16T08:40:18.235Z,1.20
2019-03-16T08:42:46.672Z,0.60
2019-03-16T08:45:15.215Z,0.80
2019-03-16T08:47:43.724Z,0.60
2019-03-16T08:50:12.400Z,0.87
2019-03-16T08:52:40.863Z,0.70
2019-03-16T08:55:09.926Z,0.80
2019-03-16T08:57:38.435Z,0.80
2019-03-16T09:00:09.607Z,0.83
2019-03-16T09:02:38.067Z,0.80
2019-03-16T09:05:07.547Z,0.60
2019-03-16T09:07:36.051Z,0.77
2019-03-16T09:10:05.853Z,0.80
2019-03-16T09:12:34.355Z,0.70
2019-03-16T09:15:02.861Z,0.80
2019-03-16T09:17:31.572Z,0.50
2019-03-16T09:20:00.081Z,0.60
2019-03-16T09:22:29.786Z,0.60
2019-03-16T09:24:58.331Z,0.70
2019-03-16T09:27:31.490Z,0.60
2019-03-16T09:29:56.926Z,0.60
2019-03-16T09:32:25.390Z,0.50
2019-03-16T09:34:53.824Z,0.60
2019-03-16T09:37:22.324Z,0.67
2019-03-16T09:39:50.787Z,0.60
2019-03-16T09:42:19.222Z,0.50
2019-03-16T09:44:47.658Z,1.17
2019-03-16T09:47:16.118Z,0.60
2019-03-16T09:49:44.556Z,0.60
2019-03-16T09:52:12.996Z,0.60
2019-03-16T09:54:41.455Z,0.77
2019-03-16T09:57:09.901Z,0.77
2019-03-16T09:59:38.338Z,0.53
2019-03-16T10:02:06.883Z,0.60
2019-03-16T10:04:35.322Z,0.70
2019-03-16T10:07:03.761Z,0.70
2019-03-16T10:09:32.223Z,0.60
2019-03-16T10:12:00.705Z,0.50
2019-03-16T10:14:29.196Z,0.50
2019-03-16T10:16:57.662Z,0.50
2019-03-16T10:19:26.091Z,0.60
2019-03-16T10:21:54.534Z,0.90
2019-03-16T10:24:22.996Z,0.60
2019-03-16T10:26:51.438Z,0.80
2019-03-16T10:29:19.882Z,0.60
2019-03-16T10:31:48.409Z,0.57
2019-03-16T10:34:16.847Z,0.83
2019-03-16T10:36:45.536Z,0.57
2019-03-16T10:39:13.999Z,0.50
2019-03-16T10:41:42.580Z,0.60
2019-03-16T10:44:11.015Z,0.60
2019-03-16T10:46:39.466Z,0.50
2019-03-16T10:49:07.909Z,0.80
2019-03-16T10:51:36.342Z,0.53
2019-03-16T10:54:04.916Z,0.67
2019-03-16T10:56:33.419Z,0.60
2019-03-16T10:59:01.929Z,0.67
2019-03-16T11:01:30.464Z,0.97
2019-03-16T11:03:58.904Z,0.97
2019-03-16T11:06:27.341Z,1.00
2019-03-16T11:08:55.871Z,0.77
2019-03-16T11:11:24.374Z,0.80
2019-03-16T11:13:52.817Z,0.90
2019-03-16T11:16:21.347Z,0.87
2019-03-16T11:18:49.783Z,1.00
2019-03-16T11:21:18.219Z,0.60
2019-03-16T11:23:46.675Z,0.50
2019-03-16T11:26:15.115Z,0.57
2019-03-16T11:28:43.547Z,0.80
2019-03-16T11:31:12.013Z,0.60
2019-03-16T11:33:40.457Z,1.47
2019-03-16T11:36:08.891Z,2.63
2019-03-16T11:38:37.359Z,0.60
2019-03-16T11:41:05.802Z,0.70
2019-03-16T11:43:34.239Z,0.90
2019-03-16T11:46:02.722Z,1.53
2019-03-16T11:48:31.223Z,0.70
2019-03-16T11:50:59.734Z,0.57
2019-03-16T11:53:28.245Z,0.80
2019-03-16T11:55:56.747Z,0.70
2019-03-16T11:58:25.176Z,0.50
2019-03-16T12:00:53.638Z,0.93
2019-03-16T12:03:22.078Z,0.67
2019-03-16T12:05:50.522Z,0.70
2019-03-16T12:08:18.982Z,0.70
2019-03-16T12:10:47.419Z,0.40
2019-03-16T12:13:17.797Z,0.50
2019-03-16T12:15:46.046Z,0.90
2019-03-16T12:18:14.495Z,0.60
2019-03-16T12:20:42.930Z,0.67
2019-03-16T12:23:11.399Z,0.60
2019-03-16T12:25:39.839Z,0.50
2019-03-16T12:28:08.277Z,0.67
2019-03-16T12:30:36.740Z,0.40
2019-03-16T12:33:05.182Z,0.53
2019-03-16T12:35:33.701Z,0.50
2019-03-16T12:38:02.171Z,0.70
2019-03-16T12:40:30.610Z,0.70
2019-03-16T12:42:59.045Z,0.63
2019-03-16T12:45:27.507Z,0.50
2019-03-16T12:47:55.950Z,0.60
2019-03-16T12:50:24.388Z,0.67
2019-03-16T12:52:52.871Z,0.90
2019-03-16T12:55:21.384Z,0.50
2019-03-16T12:57:49.824Z,0.50
2019-03-16T13:00:19.196Z,0.70
2019-03-16T13:02:47.853Z,0.50
2019-03-16T13:05:16.311Z,0.53
2019-03-16T13:07:44.834Z,0.60
2019-03-16T13:10:17.899Z,0.50
2019-03-16T13:12:46.550Z,0.50
2019-03-16T13:15:15.225Z,0.60
2019-03-16T13:17:43.731Z,0.57
2019-03-16T13:20:16.275Z,0.57
2019-03-16T13:22:44.887Z,0.70
2019-03-16T13:25:13.538Z,0.43
2019-03-16T13:27:42.050Z,0.57
2019-03-16T13:30:13.587Z,0.60
2019-03-16T13:32:42.095Z,0.50
2019-03-16T13:35:10.687Z,0.60
2019-03-16T13:37:39.301Z,0.90
2019-03-16T13:40:27.167Z,0.63
2019-03-16T13:43:15.042Z,0.70
2019-03-16T13:45:43.491Z,0.60
2019-03-16T13:48:31.311Z,0.50
2019-03-16T13:51:12.311Z,0.60
2019-03-16T13:53:40.863Z,0.83
2019-03-16T13:56:09.383Z,0.70
2019-03-16T13:58:40.622Z,0.50
2019-03-16T14:01:08.107Z,0.73
2019-03-16T14:03:36.676Z,0.53
2019-03-16T14:06:05.806Z,0.60
2019-03-16T14:08:34.267Z,0.50
2019-03-16T14:11:02.790Z,0.60
2019-03-16T14:13:31.495Z,0.60
2019-03-16T14:16:00.051Z,0.70
2019-03-16T14:18:28.552Z,0.80
2019-03-16T14:20:57.060Z,0.70
2019-03-16T14:23:25.599Z,0.50
2019-03-16T14:25:54.031Z,0.80
2019-03-16T14:28:22.546Z,0.60
2019-03-16T14:30:51.105Z,0.50
2019-03-16T14:33:19.626Z,0.50
2019-03-16T14:35:48.067Z,0.60
2019-03-16T14:38:16.535Z,0.60
2019-03-16T14:40:45.066Z,0.50
2019-03-16T14:43:13.647Z,0.60
2019-03-16T14:45:42.210Z,0.70
2019-03-16T14:48:10.703Z,0.60
2019-03-16T14:50:39.226Z,0.80
2019-03-16T14:53:07.713Z,0.50
2019-03-16T14:55:36.229Z,0.67
2019-03-16T14:58:24.032Z,0.60
2019-03-16T15:00:52.479Z,0.80
2019-03-16T15:03:20.990Z,0.67
2019-03-16T15:06:08.793Z,0.60
2019-03-16T15:08:37.303Z,0.60
2019-03-16T15:11:05.797Z,0.63
2019-03-16T15:13:34.331Z,0.53
2019-03-16T15:16:02.904Z,0.50
2019-03-16T15:18:31.478Z,0.50
2019-03-16T15:21:00.211Z,0.60
2019-03-16T15:23:28.659Z,0.50
2019-03-16T15:25:57.102Z,0.60
2019-03-16T15:28:25.567Z,0.50
2019-03-16T15:30:54.030Z,0.40
2019-03-16T15:33:22.530Z,0.50
2019-03-16T15:35:51.071Z,0.47
2019-03-16T15:38:25.477Z,0.50
2019-03-16T15:40:54.132Z,0.57
2019-03-16T15:43:22.690Z,0.60
2019-03-16T15:45:57.112Z,0.67
2019-03-16T15:48:26.219Z,0.60
2019-03-16T15:50:54.705Z,0.70
2019-03-16T15:53:23.209Z,0.60
2019-03-16T15:55:51.650Z,0.50
2019-03-16T15:58:39.458Z,0.60
2019-03-16T16:01:08.137Z,0.90
2019-03-16T16:03:36.940Z,0.60
2019-03-16T16:06:05.461Z,0.50
2019-03-16T16:08:33.905Z,0.50
2019-03-16T16:11:02.373Z,0.90
2019-03-16T16:13:30.887Z,0.60
2019-03-16T16:15:59.409Z,0.77
2019-03-16T16:18:27.843Z,0.70
2019-03-16T16:20:56.304Z,0.70
2019-03-16T16:23:44.079Z,0.50
2019-03-16T16:26:12.544Z,0.60
2019-03-16T16:28:40.985Z,0.50
2019-03-16T16:31:16.084Z,0.60
2019-03-16T16:33:39.643Z,0.90
2019-03-16T16:36:08.635Z,0.60
2019-03-16T16:38:37.206Z,0.53
2019-03-16T16:41:05.758Z,0.77
2019-03-16T16:43:34.266Z,0.53
2019-03-16T16:46:02.714Z,0.80
2019-03-16T16:48:31.255Z,0.70
2019-03-16T16:50:59.808Z,0.70
2019-03-16T16:53:28.240Z,1.10
2019-03-16T16:55:56.698Z,0.87
2019-03-16T16:58:25.280Z,0.70
2019-03-16T17:00:53.723Z,0.53
2019-03-16T17:03:22.199Z,1.00
2019-03-16T17:05:50.695Z,0.50
2019-03-16T17:08:19.749Z,0.50
2019-03-16T17:10:48.270Z,0.70
2019-03-16T17:13:36.116Z,0.80
2019-03-16T17:16:06.734Z,0.60
2019-03-16T17:18:35.172Z,0.63
2019-03-16T17:21:03.615Z,0.60
2019-03-16T17:23:32.075Z,1.03
2019-03-16T17:26:00.544Z,0.70
2019-03-16T17:28:48.408Z,0.70
2019-03-16T17:31:16.834Z,0.83
2019-03-16T17:33:45.275Z,1.70
2019-03-16T17:36:13.738Z,0.80
2019-03-16T17:38:42.210Z,0.77
2019-03-16T17:41:10.651Z,1.17
2019-03-16T17:43:58.466Z,1.53
2019-03-16T17:46:26.913Z,1.77
2019-03-16T17:48:55.429Z,3.10
2019-03-16T17:51:23.907Z,2.47
2019-03-16T17:53:52.347Z,1.50
2019-03-16T17:56:21.261Z,1.93
2019-03-16T17:58:50.033Z,2.27
2019-03-16T18:01:18.634Z,0.97
2019-03-16T18:03:47.130Z,0.93
2019-03-16T18:06:15.595Z,2.37
2019-03-16T18:08:44.041Z,2.03
2019-03-16T18:11:12.483Z,1.80
2019-03-16T18:13:40.939Z,1.50
2019-03-16T18:16:09.371Z,1.60
2019-03-16T18:18:37.803Z,1.40
2019-03-16T18:21:06.263Z,1.43
2019-03-16T18:23:34.701Z,1.33
2019-03-16T18:26:03.150Z,1.40
2019-03-16T18:28:31.668Z,1.93
2019-03-16T18:31:00.116Z,2.80
2019-03-16T18:33:28.615Z,0.70
2019-03-16T18:35:57.075Z,1.47
2019-03-16T18:38:25.576Z,1.30
2019-03-16T18:40:54.007Z,1.50
2019-03-16T18:43:22.538Z,0.93
2019-03-16T18:45:50.970Z,2.30
2019-03-16T18:48:19.479Z,2.90
2019-03-16T18:50:47.942Z,5.87
2019-03-16T18:53:16.460Z,3.60
2019-03-16T18:55:44.890Z,1.47
2019-03-16T18:58:13.355Z,2.53
2019-03-16T19:00:41.789Z,3.47
2019-03-16T19:03:11.653Z,2.30
2019-03-16T19:05:40.366Z,1.50
2019-03-16T19:08:08.799Z,1.50
2019-03-16T19:10:37.302Z,1.37
2019-03-16T19:13:05.858Z,1.13
2019-03-16T19:15:34.309Z,1.20
2019-03-16T19:18:02.814Z,1.10
2019-03-16T19:20:31.306Z,1.40
2019-03-16T19:22:59.835Z,1.00
2019-03-16T19:25:49.053Z,1.13
2019-03-16T19:28:18.606Z,0.90
2019-03-16T19:30:47.217Z,1.17
2019-03-16T19:33:21.190Z,1.20
2019-03-16T19:35:49.646Z,1.50
2019-03-16T19:38:18.324Z,0.90
2019-03-16T19:40:46.874Z,0.90
2019-03-16T19:43:15.372Z,1.50
2019-03-16T19:45:43.841Z,1.53
2019-03-16T19:48:12.354Z,1.60
2019-03-16T19:50:40.930Z,1.10
2019-03-16T19:53:09.610Z,1.20
2019-03-16T19:55:38.070Z,1.80
2019-03-16T19:58:25.850Z,1.23
2019-03-16T20:00:54.394Z,1.77
2019-03-16T20:03:22.826Z,1.60
2019-03-16T20:06:10.636Z,1.53
2019-03-16T20:08:58.557Z,2.33
2019-03-16T20:11:46.355Z,1.33
2019-03-16T20:14:14.795Z,1.00
2019-03-16T20:16:43.367Z,1.27
2019-03-16T20:19:11.891Z,1.23
2019-03-16T20:21:40.446Z,2.13
2019-03-16T20:24:28.249Z,1.90
2019-03-16T20:26:56.691Z,1.30
2019-03-16T20:29:25.228Z,3.27
2019-03-16T20:31:53.876Z,3.20
2019-03-16T20:34:22.314Z,3.13
2019-03-16T20:36:50.753Z,1.97
2019-03-16T20:39:19.216Z,1.90
2019-03-16T20:41:47.657Z,1.70
2019-03-16T20:44:16.195Z,1.20
2019-03-16T20:46:44.662Z,1.40
2019-03-16T20:49:13.172Z,1.50
2019-03-16T20:51:41.604Z,2.50
2019-03-16T20:54:10.160Z,1.40
2019-03-16T20:56:38.595Z,2.13
2019-03-16T20:59:07.031Z,2.70
2019-03-16T21:01:35.656Z,3.93
2019-03-16T21:04:04.371Z,3.20
2019-03-16T21:06:32.875Z,2.20
2019-03-16T21:09:03.371Z,4.97
2019-03-16T21:11:31.562Z,3.97
2019-03-16T21:14:00.011Z,3.00
2019-03-16T21:16:28.477Z,2.73
2019-03-16T21:18:56.910Z,3.10
2019-03-16T21:21:25.382Z,3.67
2019-03-16T21:23:53.893Z,3.27
2019-03-16T21:26:22.334Z,3.47
2019-03-16T21:28:50.786Z,4.10
2019-03-16T21:31:19.333Z,7.03
2019-03-16T21:33:47.861Z,3.80
2019-03-16T21:36:16.306Z,2.77
2019-03-16T21:38:44.838Z,4.40
2019-03-16T21:41:13.267Z,1.70
2019-03-16T21:43:41.751Z,3.30
2019-03-16T21:46:10.223Z,2.77
2019-03-16T21:48:38.747Z,3.33
2019-03-16T21:51:07.178Z,2.80
2019-03-16T21:53:35.636Z,2.27
2019-03-16T21:56:04.320Z,1.77
2019-03-16T21:58:32.767Z,2.60
2019-03-16T22:01:03.970Z,1.00
2019-03-16T22:03:41.618Z,1.93
2019-03-16T22:06:02.580Z,2.27
2019-03-16T22:08:31.135Z,3.90
2019-03-16T22:10:59.634Z,1.27
2019-03-16T22:13:28.075Z,1.97
2019-03-16T22:15:56.543Z,2.60
2019-03-16T22:18:44.499Z,3.30
2019-03-16T22:21:13.040Z,2.57
2019-03-16T22:23:41.475Z,2.33
2019-03-16T22:26:09.985Z,2.67
2019-03-16T22:28:38.449Z,4.20
2019-03-16T22:31:06.883Z,3.40
2019-03-16T22:33:35.322Z,2.90
2019-03-16T22:36:03.779Z,2.40
2019-03-16T22:38:32.230Z,1.93
2019-03-16T22:41:00.666Z,2.20
2019-03-16T22:43:29.176Z,2.17
2019-03-16T22:45:57.692Z,4.10
2019-03-16T22:48:26.291Z,2.30
2019-03-16T22:50:54.826Z,3.03
2019-03-16T22:53:23.272Z,2.73
2019-03-16T22:55:51.703Z,2.00
2019-03-16T22:58:39.507Z,1.97
2019-03-16T23:01:08.199Z,4.30
2019-03-16T23:03:36.663Z,3.43
2019-03-16T23:06:05.200Z,1.70
2019-03-16T23:08:53.049Z,1.80
2019-03-16T23:11:40.935Z,1.80
2019-03-16T23:14:09.527Z,2.53
2019-03-16T23:16:37.971Z,2.13
2019-03-16T23:19:06.434Z,3.03
2019-03-16T23:21:34.877Z,2.70
2019-03-16T23:24:03.317Z,1.33
2019-03-16T23:26:38.409Z,1.63
2019-03-16T23:29:01.941Z,1.07
2019-03-16T23:31:30.392Z,1.30
2019-03-16T23:33:58.860Z,1.20
2019-03-16T23:36:27.308Z,1.50
2019-03-16T23:38:55.742Z,2.57
2019-03-16T23:41:24.211Z,1.90
2019-03-16T23:43:52.646Z,1.10
2019-03-16T23:46:21.088Z,1.80
2019-03-16T23:48:49.547Z,0.83
2019-03-16T23:51:18.152Z,1.33
2019-03-16T23:53:46.598Z,1.23
2019-03-16T23:56:15.067Z,1.97
2019-03-16T23:58:43.570Z,1.70
